RJOP weather

Komatsushima Heliport
Komatsushima, Tokushima Prefecture, Japan

Public forecast

Using degrees Celsius for public forecast. Weather courtesy of forecast.io.

Current aviation weather report (METAR) for Komatsushima Heliport

Report is more than 6 hours old.

Retrieved 2019/12/05 08:36 UTC (8 hours ago):

RJOP 050836Z 32015G25KT 9999 FEW030 SCT050 BKN100 11/01 Q1026 RMK 1CU030 3SC050 7AC100 A3031

Closest aviation forecast (TAF) to Komatsushima Heliport

Closest forecast is Takamatsu Airport, 32.8 nm (60.8 km) WNW. Retrieved 2019/12/05 12:30 UTC (4 hours ago):

TAF TAF RJOT 051108Z 0512/0618 28009KT 9999 FEW025 BKN045 BECMG 0603/0606 36005KT